createdAt,value
2022-08-01T00:00:15.751Z,65.94
2022-08-01T00:02:43.119Z,66.57
2022-08-01T00:05:11.793Z,65.97
2022-08-01T00:07:39.891Z,66.63
2022-08-01T00:10:11.789Z,66.20
2022-08-01T00:12:39.275Z,66.20
2022-08-01T00:15:09.174Z,65.63
2022-08-01T00:17:36.758Z,65.96
2022-08-01T00:20:07.999Z,66.43
2022-08-01T00:22:35.466Z,67.30
2022-08-01T00:25:03.661Z,67.94
2022-08-01T00:27:30.717Z,68.08
2022-08-01T00:30:13.585Z,68.65
2022-08-01T00:32:43.391Z,68.40
2022-08-01T00:35:11.391Z,68.45
2022-08-01T00:37:38.465Z,68.59
2022-08-01T00:40:07.043Z,68.40
2022-08-01T00:42:34.086Z,68.92
2022-08-01T00:45:01.112Z,69.48
2022-08-01T00:47:28.149Z,70.41
2022-08-01T00:49:55.105Z,70.74
2022-08-01T00:52:22.128Z,71.94
2022-08-01T00:54:49.568Z,71.62
2022-08-01T00:57:16.664Z,71.67
2022-08-01T01:00:06.122Z,72.52
2022-08-01T01:02:33.550Z,72.03
2022-08-01T01:05:00.650Z,72.22
2022-08-01T01:07:50.005Z,72.02
2022-08-01T01:10:26.879Z,71.97
2022-08-01T01:13:10.253Z,71.96
2022-08-01T01:15:56.748Z,71.39
2022-08-01T01:18:34.656Z,71.36
2022-08-01T01:21:21.157Z,71.84
2022-08-01T01:24:15.951Z,72.42
2022-08-01T01:27:11.255Z,72.89
2022-08-01T01:30:00.253Z,73.41
2022-08-01T01:32:40.047Z,74.60
2022-08-01T01:35:14.727Z,75.05
2022-08-01T01:37:43.109Z,75.63
2022-08-01T01:40:13.067Z,74.78
2022-08-01T01:42:41.140Z,73.68
2022-08-01T01:45:09.800Z,74.71
2022-08-01T01:47:39.059Z,75.67
2022-08-01T01:50:09.240Z,75.12
2022-08-01T01:52:39.199Z,74.44
2022-08-01T01:55:09.442Z,74.90
2022-08-01T01:57:42.914Z,74.80
2022-08-01T02:00:14.576Z,74.02
2022-08-01T02:02:43.501Z,75.10
2022-08-01T02:05:13.378Z,75.34
2022-08-01T02:07:42.006Z,75.46
2022-08-01T02:10:11.586Z,77.04
2022-08-01T02:12:43.206Z,78.99
2022-08-01T02:15:12.703Z,77.00
2022-08-01T02:17:45.692Z,77.18
2022-08-01T02:20:13.735Z,77.38
2022-08-01T02:22:52.324Z,77.31
2022-08-01T02:25:32.848Z,76.90
2022-08-01T02:28:07.242Z,75.97
2022-08-01T02:30:39.804Z,74.40
2022-08-01T02:33:22.006Z,75.40
2022-08-01T02:36:32.648Z,75.13
2022-08-01T02:38:44.723Z,74.92
2022-08-01T02:41:19.542Z,75.71
2022-08-01T02:43:53.560Z,76.48
2022-08-01T02:46:37.626Z,77.19
2022-08-01T02:49:09.337Z,77.01
2022-08-01T02:51:38.417Z,76.54
2022-08-01T02:54:08.304Z,77.59
2022-08-01T02:56:36.787Z,77.24
2022-08-01T02:59:10.161Z,77.99
2022-08-01T03:01:38.034Z,78.05
2022-08-01T03:04:08.996Z,79.13
2022-08-01T03:06:37.717Z,78.47
2022-08-01T03:09:07.358Z,78.67
2022-08-01T03:11:36.306Z,78.17
2022-08-01T03:14:06.385Z,76.76
2022-08-01T03:16:37.615Z,77.06
2022-08-01T03:19:06.028Z,76.76
2022-08-01T03:21:33.864Z,77.34
2022-08-01T03:24:02.653Z,78.18
2022-08-01T03:26:33.318Z,78.28
2022-08-01T03:29:07.725Z,78.76
2022-08-01T03:31:37.764Z,78.56
2022-08-01T03:34:06.386Z,79.48
2022-08-01T03:36:39.194Z,79.74
2022-08-01T03:39:10.357Z,80.45
2022-08-01T03:41:43.067Z,80.75
2022-08-01T03:44:15.588Z,79.99
2022-08-01T03:47:08.096Z,80.60
2022-08-01T03:49:42.955Z,80.17
2022-08-01T03:52:10.786Z,81.46
2022-08-01T03:54:43.287Z,81.89
2022-08-01T03:57:34.825Z,81.88
2022-08-01T04:00:07.208Z,79.96
2022-08-01T04:02:34.642Z,80.51
2022-08-01T04:05:02.064Z,81.40
2022-08-01T04:07:34.134Z,81.34
2022-08-01T04:10:01.113Z,82.14
2022-08-01T04:12:28.167Z,81.88
2022-08-01T04:14:55.318Z,81.92
2022-08-01T04:17:22.313Z,82.59
2022-08-01T04:19:49.355Z,82.98
2022-08-01T04:22:16.936Z,82.64
2022-08-01T04:24:54.801Z,82.25
2022-08-01T04:27:49.992Z,82.14
2022-08-01T04:30:30.922Z,81.74
2022-08-01T04:33:01.540Z,81.89
2022-08-01T04:36:01.810Z,81.41
2022-08-01T04:38:24.342Z,81.28
2022-08-01T04:40:53.251Z,80.47
2022-08-01T04:43:20.512Z,80.21
2022-08-01T04:45:48.886Z,79.63
2022-08-01T04:48:22.281Z,79.91
2022-08-01T04:50:50.501Z,79.60
2022-08-01T04:53:20.212Z,78.85
2022-08-01T04:55:47.707Z,78.40
2022-08-01T04:58:18.515Z,81.99
2022-08-01T05:00:49.162Z,82.35
2022-08-01T05:03:16.560Z,80.64
2022-08-01T05:05:43.526Z,79.78
2022-08-01T05:08:11.055Z,80.79
2022-08-01T05:10:38.311Z,79.19
2022-08-01T05:13:05.295Z,77.88
2022-08-01T05:15:32.227Z,76.53
2022-08-01T05:17:59.284Z,75.61
2022-08-01T05:20:26.360Z,74.59
2022-08-01T05:22:54.494Z,73.73
2022-08-01T05:25:56.268Z,72.74
2022-08-01T05:28:08.826Z,72.92
2022-08-01T05:30:35.792Z,72.22
2022-08-01T05:33:02.716Z,71.95
2022-08-01T05:35:48.097Z,71.79
2022-08-01T05:38:16.880Z,71.51
2022-08-01T05:40:43.818Z,71.31
2022-08-01T05:43:10.811Z,69.78
2022-08-01T05:45:37.949Z,70.35
2022-08-01T05:48:05.138Z,69.92
2022-08-01T05:50:32.559Z,70.82
2022-08-01T05:52:59.671Z,70.46
2022-08-01T05:55:26.636Z,70.83
2022-08-01T05:57:53.530Z,70.90
2022-08-01T06:00:20.573Z,69.69
2022-08-01T06:02:47.508Z,70.39
2022-08-01T06:05:14.507Z,69.91
2022-08-01T06:07:41.646Z,70.75
2022-08-01T06:10:09.741Z,70.24
2022-08-01T06:12:37.734Z,70.29
2022-08-01T06:15:07.094Z,70.02
2022-08-01T06:17:34.180Z,69.67
2022-08-01T06:20:01.364Z,68.84
2022-08-01T06:22:28.360Z,69.16
2022-08-01T06:24:55.389Z,68.19
2022-08-01T06:27:22.892Z,67.51
2022-08-01T06:29:51.401Z,68.23
2022-08-01T06:32:25.567Z,68.20
2022-08-01T06:34:55.758Z,68.23
2022-08-01T06:37:23.271Z,67.42
2022-08-01T06:39:50.978Z,66.30
2022-08-01T06:42:18.555Z,66.44
2022-08-01T06:44:46.105Z,68.06
2022-08-01T06:47:13.214Z,65.90
2022-08-01T06:49:40.353Z,65.96
2022-08-01T06:52:07.897Z,66.19
2022-08-01T06:54:35.186Z,65.55
2022-08-01T06:57:02.147Z,64.21
2022-08-01T06:59:29.127Z,65.12
2022-08-01T07:01:56.136Z,66.55
2022-08-01T07:04:23.137Z,67.51
2022-08-01T07:06:50.192Z,65.02
2022-08-01T07:09:17.141Z,64.12
2022-08-01T07:11:44.176Z,66.63
2022-08-01T07:14:11.233Z,64.45
2022-08-01T07:16:38.192Z,64.04
2022-08-01T07:19:05.378Z,62.75
2022-08-01T07:21:38.682Z,65.05
2022-08-01T07:24:12.973Z,65.10
2022-08-01T07:26:52.899Z,64.22
2022-08-01T07:29:23.742Z,64.95
2022-08-01T07:31:51.848Z,64.83
2022-08-01T07:34:18.790Z,62.86
2022-08-01T07:36:46.871Z,65.04
2022-08-01T07:39:13.764Z,65.74
2022-08-01T07:41:53.232Z,63.79
2022-08-01T07:44:28.302Z,65.42
2022-08-01T07:46:57.375Z,63.49
2022-08-01T07:49:24.395Z,60.92
2022-08-01T07:52:03.850Z,60.36
2022-08-01T07:54:34.482Z,62.02
2022-08-01T07:57:03.709Z,61.60
2022-08-01T07:59:30.854Z,61.07
2022-08-01T08:01:58.077Z,61.42
2022-08-01T08:04:25.674Z,62.29
2022-08-01T08:06:54.322Z,62.87
2022-08-01T08:09:21.329Z,62.47
2022-08-01T08:11:48.668Z,62.35
2022-08-01T08:14:17.473Z,62.93
2022-08-01T08:16:44.971Z,62.67
2022-08-01T08:19:12.608Z,61.27
2022-08-01T08:21:40.259Z,60.22
2022-08-01T08:24:26.502Z,59.90
2022-08-01T08:26:59.853Z,60.57
2022-08-01T08:29:28.460Z,59.05
2022-08-01T08:31:55.875Z,57.93
2022-08-01T08:34:25.963Z,58.42
2022-08-01T08:36:55.517Z,58.53
2022-08-01T08:39:22.961Z,57.39
2022-08-01T08:41:50.290Z,57.44
2022-08-01T08:44:19.158Z,58.44
2022-08-01T08:46:50.229Z,57.39
2022-08-01T08:49:22.847Z,58.40
2022-08-01T08:51:52.628Z,57.48
2022-08-01T08:54:30.871Z,57.56
2022-08-01T08:57:01.186Z,57.42
2022-08-01T08:59:29.602Z,58.37
2022-08-01T09:01:57.779Z,57.33
2022-08-01T09:04:26.898Z,57.07
2022-08-01T09:06:55.596Z,54.96
2022-08-01T09:09:24.004Z,55.79
2022-08-01T09:11:56.705Z,56.98
2022-08-01T09:14:31.056Z,57.02
2022-08-01T09:17:11.844Z,57.37
2022-08-01T09:19:54.531Z,57.46
2022-08-01T09:22:26.275Z,57.73
2022-08-01T09:25:09.599Z,57.79
2022-08-01T09:27:44.405Z,57.82
2022-08-01T09:30:23.761Z,57.83
2022-08-01T09:33:06.543Z,57.50
2022-08-01T09:35:43.838Z,59.61
2022-08-01T09:38:23.774Z,58.04
2022-08-01T09:41:01.424Z,58.00
2022-08-01T09:43:31.505Z,57.09
2022-08-01T09:46:01.057Z,56.40
2022-08-01T09:48:29.686Z,57.26
2022-08-01T09:51:04.441Z,57.36
2022-08-01T09:53:52.506Z,59.99
2022-08-01T09:56:23.251Z,57.50
2022-08-01T09:59:01.609Z,58.26
2022-08-01T10:01:50.140Z,59.46
2022-08-01T10:04:23.077Z,58.61
2022-08-01T10:06:55.488Z,60.26
2022-08-01T10:09:40.437Z,60.81
2022-08-01T10:12:15.523Z,59.74
2022-08-01T10:14:46.188Z,59.84
2022-08-01T10:17:18.304Z,59.81
2022-08-01T10:19:48.196Z,59.54
2022-08-01T10:22:17.803Z,58.00
2022-08-01T10:24:49.097Z,57.65
2022-08-01T10:27:24.306Z,55.93
2022-08-01T10:30:19.737Z,57.05
2022-08-01T10:32:55.313Z,58.97
2022-08-01T10:35:45.787Z,59.75
2022-08-01T10:38:10.711Z,58.88
2022-08-01T10:40:42.781Z,59.46
2022-08-01T10:43:11.897Z,57.67
2022-08-01T10:45:40.403Z,60.05
2022-08-01T10:48:26.482Z,60.76
2022-08-01T10:51:02.837Z,58.65
2022-08-01T10:53:31.911Z,59.47
2022-08-01T10:56:13.248Z,55.34
2022-08-01T10:58:45.041Z,55.41
2022-08-01T11:01:28.173Z,53.74
2022-08-01T11:04:04.165Z,54.84
2022-08-01T11:06:34.194Z,55.23
2022-08-01T11:09:36.315Z,54.90
2022-08-01T11:12:23.131Z,55.29
2022-08-01T11:15:02.785Z,54.53
2022-08-01T11:17:42.830Z,55.19
2022-08-01T11:20:10.453Z,55.05
2022-08-01T11:23:06.165Z,54.99
2022-08-01T11:26:05.400Z,52.56
2022-08-01T11:28:32.697Z,51.95
2022-08-01T11:31:11.280Z,52.69
2022-08-01T11:33:45.987Z,51.50
2022-08-01T11:36:14.735Z,51.01
2022-08-01T11:39:13.149Z,52.24
2022-08-01T11:41:44.249Z,51.15
2022-08-01T11:44:26.915Z,50.55
2022-08-01T11:47:09.731Z,50.95
2022-08-01T11:49:49.172Z,48.44
2022-08-01T11:52:30.472Z,47.29
2022-08-01T11:55:01.785Z,49.51
2022-08-01T11:57:34.852Z,49.81
2022-08-01T12:00:20.918Z,49.14
2022-08-01T12:03:08.445Z,48.95
2022-08-01T12:05:43.335Z,48.97
2022-08-01T12:08:10.618Z,48.42
2022-08-01T12:10:47.116Z,47.96
2022-08-01T12:13:19.022Z,49.09
2022-08-01T12:15:47.462Z,50.09
2022-08-01T12:18:15.760Z,49.90
2022-08-01T12:21:02.045Z,49.19
2022-08-01T12:23:29.018Z,49.18
2022-08-01T12:25:56.076Z,48.76
2022-08-01T12:28:23.757Z,48.76
2022-08-01T12:30:51.286Z,47.46
2022-08-01T12:33:20.712Z,48.17
2022-08-01T12:35:48.794Z,48.25
2022-08-01T12:38:24.045Z,48.19
2022-08-01T12:40:53.334Z,47.20
2022-08-01T12:43:27.816Z,47.81
2022-08-01T12:45:58.619Z,49.41
2022-08-01T12:48:26.818Z,50.41
2022-08-01T12:50:54.641Z,48.72
2022-08-01T12:53:22.767Z,48.92
2022-08-01T12:55:58.564Z,48.97
2022-08-01T12:58:36.416Z,50.03
2022-08-01T13:01:12.933Z,48.69
2022-08-01T13:03:41.059Z,48.44
2022-08-01T13:06:18.045Z,47.56
2022-08-01T13:08:46.581Z,47.40
2022-08-01T13:11:17.400Z,48.08
2022-08-01T13:13:50.053Z,47.70
2022-08-01T13:16:30.541Z,46.83
2022-08-01T13:19:06.838Z,48.81
2022-08-01T13:21:54.157Z,50.08
2022-08-01T13:24:29.778Z,51.77
2022-08-01T13:27:01.279Z,52.92
2022-08-01T13:29:42.364Z,50.67
2022-08-01T13:32:27.955Z,51.52
2022-08-01T13:35:13.399Z,51.08
2022-08-01T13:37:43.073Z,50.71
2022-08-01T13:40:12.865Z,51.26
2022-08-01T13:42:40.211Z,51.21
2022-08-01T13:45:14.099Z,51.55
2022-08-01T13:48:03.560Z,50.87
2022-08-01T13:50:30.291Z,50.33
2022-08-01T13:52:57.964Z,48.99
2022-08-01T13:55:27.934Z,50.18
2022-08-01T13:57:56.909Z,50.10
2022-08-01T14:00:24.123Z,48.93
2022-08-01T14:02:51.110Z,49.87
2022-08-01T14:05:18.279Z,51.31
2022-08-01T14:07:45.706Z,52.30
2022-08-01T14:10:19.576Z,52.47
2022-08-01T14:12:49.072Z,53.05
2022-08-01T14:15:36.457Z,51.75
2022-08-01T14:18:04.280Z,52.15
2022-08-01T14:20:34.468Z,52.64
2022-08-01T14:23:01.884Z,51.50
2022-08-01T14:26:02.843Z,51.40
2022-08-01T14:28:16.856Z,51.08
2022-08-01T14:30:44.264Z,52.24
2022-08-01T14:33:12.235Z,50.74
2022-08-01T14:36:03.500Z,51.09
2022-08-01T14:38:31.486Z,52.16
2022-08-01T14:41:00.308Z,52.45
2022-08-01T14:43:32.692Z,52.47
2022-08-01T14:46:01.842Z,52.43
2022-08-01T14:48:30.217Z,52.20
2022-08-01T14:50:58.457Z,51.63
2022-08-01T14:53:25.611Z,51.72
2022-08-01T14:55:52.710Z,53.62
2022-08-01T14:58:19.741Z,53.49
2022-08-01T15:00:47.022Z,53.02
2022-08-01T15:03:14.214Z,53.52
2022-08-01T15:05:41.303Z,53.20
2022-08-01T15:08:08.371Z,53.03
2022-08-01T15:10:35.555Z,53.10
2022-08-01T15:13:02.875Z,53.49
2022-08-01T15:15:30.164Z,53.16
2022-08-01T15:17:57.615Z,52.18
2022-08-01T15:20:25.620Z,52.90
2022-08-01T15:22:53.747Z,53.24
2022-08-01T15:25:21.449Z,53.29
2022-08-01T15:27:48.816Z,53.29
2022-08-01T15:30:16.026Z,53.59
2022-08-01T15:32:43.140Z,55.32
2022-08-01T15:35:11.254Z,54.45
2022-08-01T15:37:42.767Z,53.75
2022-08-01T15:40:12.453Z,54.32
2022-08-01T15:42:39.620Z,55.28
2022-08-01T15:45:10.583Z,54.75
2022-08-01T15:47:43.369Z,55.26
2022-08-01T15:50:11.843Z,54.37
2022-08-01T15:52:39.306Z,53.29
2022-08-01T15:55:07.066Z,52.99
2022-08-01T15:57:34.073Z,53.31
2022-08-01T16:00:01.045Z,53.33
2022-08-01T16:02:30.053Z,53.25
2022-08-01T16:04:56.965Z,53.39
2022-08-01T16:07:24.005Z,54.06
2022-08-01T16:09:51.017Z,53.03
2022-08-01T16:12:19.050Z,54.29
2022-08-01T16:14:46.385Z,53.54
2022-08-01T16:17:13.529Z,54.32
2022-08-01T16:19:40.921Z,54.43
2022-08-01T16:22:08.383Z,53.76
2022-08-01T16:24:36.431Z,53.56
2022-08-01T16:27:03.704Z,53.41
2022-08-01T16:29:31.954Z,53.99
2022-08-01T16:32:07.985Z,53.62
2022-08-01T16:34:36.479Z,54.42
2022-08-01T16:37:07.610Z,54.27
2022-08-01T16:39:35.799Z,54.05
2022-08-01T16:42:03.106Z,53.65
2022-08-01T16:44:34.175Z,53.63
2022-08-01T16:47:05.058Z,53.72
2022-08-01T16:49:32.619Z,53.67
2022-08-01T16:51:59.960Z,53.89
2022-08-01T16:54:27.760Z,54.15
2022-08-01T16:57:07.969Z,54.37
2022-08-01T17:02:20.880Z,55.25
2022-08-01T17:04:47.900Z,54.51
2022-08-01T17:07:14.922Z,53.89
2022-08-01T17:09:43.633Z,54.21
2022-08-01T17:12:11.887Z,53.77
2022-08-01T17:14:40.027Z,54.48
2022-08-01T17:17:07.950Z,54.00
2022-08-01T17:19:35.239Z,54.36
2022-08-01T17:22:02.340Z,54.43
2022-08-01T17:24:29.407Z,54.46
2022-08-01T17:26:56.412Z,54.09
2022-08-01T17:29:23.643Z,55.25
2022-08-01T17:31:50.624Z,56.25
2022-08-01T17:34:17.639Z,56.00
2022-08-01T17:36:45.972Z,56.18
2022-08-01T17:39:13.575Z,56.02
2022-08-01T17:41:41.327Z,55.71
2022-08-01T17:44:09.064Z,55.66
2022-08-01T17:46:36.361Z,54.67
2022-08-01T17:49:04.749Z,53.04
2022-08-01T17:51:32.761Z,54.13
2022-08-01T17:53:59.888Z,54.48
2022-08-01T17:56:28.660Z,54.11
2022-08-01T17:58:56.054Z,54.65
2022-08-01T18:01:26.495Z,54.33
2022-08-01T18:03:55.976Z,54.39
2022-08-01T18:06:25.368Z,55.13
2022-08-01T18:08:55.350Z,54.43
2022-08-01T18:11:24.755Z,55.36
2022-08-01T18:14:01.099Z,54.84
2022-08-01T18:16:29.245Z,55.53
2022-08-01T18:18:56.326Z,55.63
2022-08-01T18:21:23.752Z,55.22
2022-08-01T18:23:51.229Z,55.89
2022-08-01T18:26:18.867Z,55.39
2022-08-01T18:28:46.357Z,55.67
2022-08-01T18:31:17.198Z,56.41
2022-08-01T18:33:44.282Z,56.14
2022-08-01T18:36:26.523Z,56.24
2022-08-01T18:38:59.577Z,56.39
2022-08-01T18:41:26.787Z,56.59
2022-08-01T18:44:05.352Z,56.44
2022-08-01T18:46:39.325Z,57.23
2022-08-01T18:49:11.483Z,57.38
2022-08-01T18:51:44.391Z,56.93
2022-08-01T18:54:12.997Z,57.07
2022-08-01T18:56:41.173Z,58.23
2022-08-01T18:59:08.342Z,57.96
2022-08-01T19:01:36.650Z,58.27
2022-08-01T19:04:03.885Z,58.32
2022-08-01T19:06:31.462Z,58.19
2022-08-01T19:09:02.292Z,58.37
2022-08-01T19:11:34.307Z,58.71
2022-08-01T19:14:02.268Z,59.14
2022-08-01T19:16:29.867Z,59.44
2022-08-01T19:18:56.954Z,59.08
2022-08-01T19:21:25.332Z,59.49
2022-08-01T19:24:10.627Z,59.92
2022-08-01T19:26:40.363Z,59.90
2022-08-01T19:29:27.577Z,60.99
2022-08-01T19:32:08.968Z,61.52
2022-08-01T19:34:50.011Z,61.38
2022-08-01T19:37:17.046Z,61.57
2022-08-01T19:39:45.158Z,61.84
2022-08-01T19:42:13.487Z,62.42
2022-08-01T19:44:40.852Z,62.83
2022-08-01T19:47:08.320Z,62.63
2022-08-01T19:49:35.939Z,62.38
2022-08-01T19:52:04.709Z,62.33
2022-08-01T19:54:37.678Z,62.34
2022-08-01T19:57:08.297Z,62.96
2022-08-01T19:59:36.931Z,62.73
2022-08-01T20:02:05.518Z,62.41
2022-08-01T20:04:36.122Z,63.09
2022-08-01T20:07:03.245Z,63.23
2022-08-01T20:09:31.582Z,63.24
2022-08-01T20:11:58.640Z,63.47
2022-08-01T20:14:26.706Z,63.33
2022-08-01T20:16:56.144Z,63.38
2022-08-01T20:19:24.886Z,64.53
2022-08-01T20:22:04.461Z,64.86
2022-08-01T20:24:49.939Z,64.96
2022-08-01T20:27:18.633Z,65.20
2022-08-01T20:29:49.331Z,64.58
2022-08-01T20:32:17.749Z,65.47
2022-08-01T20:34:44.712Z,65.65
2022-08-01T20:37:13.123Z,66.00
2022-08-01T20:39:43.489Z,66.00
2022-08-01T20:42:11.959Z,66.17
2022-08-01T20:44:39.518Z,66.39
2022-08-01T20:47:06.755Z,66.22
2022-08-01T20:49:37.253Z,66.85
2022-08-01T20:52:12.070Z,65.93
2022-08-01T20:54:43.124Z,66.44
2022-08-01T20:57:25.228Z,66.06
2022-08-01T21:00:05.421Z,66.77
2022-08-01T21:03:08.237Z,68.00
2022-08-01T21:05:42.106Z,68.96
2022-08-01T21:08:49.824Z,69.31
2022-08-01T21:11:21.355Z,70.02
2022-08-01T21:13:49.299Z,68.80
2022-08-01T21:16:29.412Z,70.16
2022-08-01T21:19:20.006Z,70.92
2022-08-01T21:22:30.055Z,71.74
2022-08-01T21:25:07.175Z,71.70
2022-08-01T21:27:36.098Z,72.03
2022-08-01T21:30:07.641Z,71.66
2022-08-01T21:32:36.587Z,71.16
2022-08-01T21:35:07.868Z,70.96
2022-08-01T21:37:44.843Z,70.58
2022-08-01T21:40:24.210Z,70.95
2022-08-01T21:42:53.567Z,70.67
2022-08-01T21:45:24.306Z,71.10
2022-08-01T21:47:52.479Z,71.00
2022-08-01T21:50:20.597Z,71.65
2022-08-01T21:52:54.472Z,72.44
2022-08-01T21:55:34.892Z,72.29
2022-08-01T21:58:40.472Z,72.87
2022-08-01T22:01:13.917Z,73.20
2022-08-01T22:03:47.467Z,74.14
2022-08-01T22:06:16.374Z,74.62
2022-08-01T22:08:57.064Z,75.61
2022-08-01T22:11:30.142Z,75.43
2022-08-01T22:14:08.617Z,76.30
2022-08-01T22:16:40.884Z,76.70
2022-08-01T22:19:34.085Z,75.79
2022-08-01T22:22:01.122Z,76.08
2022-08-01T22:24:28.787Z,75.78
2022-08-01T22:26:56.442Z,76.36
2022-08-01T22:29:30.133Z,77.64
2022-08-01T22:31:58.886Z,77.12
2022-08-01T22:34:28.931Z,76.88
2022-08-01T22:36:56.056Z,77.98
2022-08-01T22:39:24.238Z,79.06
2022-08-01T22:42:01.816Z,79.64
2022-08-01T22:44:47.790Z,79.88
2022-08-01T22:47:54.866Z,80.67
2022-08-01T22:50:38.390Z,80.87
2022-08-01T22:53:29.568Z,80.15
2022-08-01T22:55:58.951Z,80.60
2022-08-01T22:58:33.654Z,80.76
2022-08-01T23:01:07.336Z,80.79
2022-08-01T23:03:37.710Z,81.22
2022-08-01T23:06:11.836Z,80.33
2022-08-01T23:08:41.223Z,80.28
2022-08-01T23:11:08.375Z,80.50
2022-08-01T23:13:35.949Z,80.70
2022-08-01T23:16:03.701Z,80.79
2022-08-01T23:18:30.859Z,80.71
2022-08-01T23:21:01.232Z,80.87
2022-08-01T23:23:31.812Z,80.75
2022-08-01T23:26:00.265Z,81.34
2022-08-01T23:28:28.954Z,81.37
2022-08-01T23:30:56.619Z,81.04
2022-08-01T23:33:23.544Z,80.98
2022-08-01T23:35:51.000Z,81.10
2022-08-01T23:38:18.448Z,80.36
2022-08-01T23:40:45.471Z,81.00
2022-08-01T23:43:16.997Z,80.74
2022-08-01T23:46:03.868Z,80.58
2022-08-01T23:48:34.915Z,80.83
2022-08-01T23:51:03.146Z,79.95
2022-08-01T23:53:30.936Z,80.57
2022-08-01T23:56:01.005Z,81.78
2022-08-01T23:58:30.164Z,82.95
